createdAt,value
2022-10-13T00:01:15.066Z,11.50
2022-10-13T00:03:42.965Z,11.50
2022-10-13T00:06:11.216Z,11.40
2022-10-13T00:08:39.436Z,11.30
2022-10-13T00:11:18.223Z,11.20
2022-10-13T00:13:46.340Z,11.20
2022-10-13T00:16:15.529Z,11.20
2022-10-13T00:18:42.743Z,11.00
2022-10-13T00:21:12.596Z,11.10
2022-10-13T00:23:40.169Z,11.00
2022-10-13T00:26:09.645Z,11.00
2022-10-13T00:28:37.255Z,11.00
2022-10-13T00:31:04.398Z,10.90
2022-10-13T00:33:31.178Z,10.90
2022-10-13T00:35:57.929Z,10.90
2022-10-13T00:38:24.763Z,10.80
2022-10-13T00:40:54.308Z,10.80
2022-10-13T00:43:26.779Z,10.80
2022-10-13T00:45:54.567Z,10.80
2022-10-13T00:48:27.217Z,10.70
2022-10-13T00:50:54.251Z,10.60
2022-10-13T00:53:27.491Z,10.60
2022-10-13T00:55:55.611Z,10.60
2022-10-13T00:58:25.663Z,10.50
2022-10-13T01:00:53.495Z,10.60
2022-10-13T01:03:21.325Z,10.60
2022-10-13T01:05:50.064Z,10.60
2022-10-13T01:08:18.042Z,10.60
2022-10-13T01:10:44.814Z,10.60
2022-10-13T01:13:34.595Z,10.70
2022-10-13T01:16:15.088Z,10.70
2022-10-13T01:18:55.229Z,10.70
2022-10-13T01:21:38.127Z,10.80
2022-10-13T01:24:42.474Z,10.80
2022-10-13T01:27:22.196Z,10.80
2022-10-13T01:30:04.220Z,10.70
2022-10-13T01:32:48.993Z,10.70
2022-10-13T01:35:37.854Z,10.80
2022-10-13T01:38:17.655Z,10.80
2022-10-13T01:40:58.651Z,10.80
2022-10-13T01:43:30.729Z,10.70
2022-10-13T01:46:05.699Z,10.70
2022-10-13T01:48:36.114Z,10.70
2022-10-13T01:51:03.163Z,10.80
2022-10-13T01:53:30.491Z,10.80
2022-10-13T01:56:00.227Z,10.80
2022-10-13T01:58:31.789Z,10.80
2022-10-13T02:01:12.251Z,10.80
2022-10-13T02:04:09.868Z,10.80
2022-10-13T02:06:41.270Z,10.80
2022-10-13T02:09:40.105Z,10.80
2022-10-13T02:12:14.050Z,10.70
2022-10-13T02:14:44.025Z,10.70
2022-10-13T02:17:11.621Z,10.70
2022-10-13T02:19:40.110Z,10.70
2022-10-13T02:22:11.074Z,10.70
2022-10-13T02:24:40.318Z,10.70
2022-10-13T02:27:08.139Z,10.80
2022-10-13T02:29:34.947Z,10.80
2022-10-13T02:32:01.829Z,10.80
2022-10-13T02:34:28.871Z,10.90
2022-10-13T02:36:55.655Z,10.90
2022-10-13T02:39:22.400Z,10.90
2022-10-13T02:41:49.183Z,10.90
2022-10-13T02:44:16.013Z,10.90
2022-10-13T02:46:42.765Z,10.90
2022-10-13T02:49:10.863Z,10.90
2022-10-13T02:51:40.034Z,11.00
2022-10-13T02:54:07.767Z,10.90
2022-10-13T02:56:34.651Z,10.90
2022-10-13T02:59:01.461Z,10.90
2022-10-13T03:01:28.278Z,10.90
2022-10-13T03:03:55.124Z,10.80
2022-10-13T03:06:22.712Z,10.90
2022-10-13T03:08:49.566Z,10.80
2022-10-13T03:11:16.367Z,10.80
2022-10-13T03:13:43.212Z,10.80
2022-10-13T03:16:10.257Z,10.80
2022-10-13T03:18:37.041Z,10.70
2022-10-13T03:21:06.397Z,10.70
2022-10-13T03:23:33.490Z,10.60
2022-10-13T03:26:00.439Z,10.70
2022-10-13T03:28:27.537Z,10.70
2022-10-13T03:31:05.386Z,10.60
2022-10-13T03:33:32.301Z,10.60
2022-10-13T03:36:04.982Z,10.60
2022-10-13T03:38:33.925Z,10.60
2022-10-13T03:41:12.937Z,10.60
2022-10-13T03:43:40.528Z,10.50
2022-10-13T03:46:08.626Z,10.50
2022-10-13T03:48:36.359Z,10.40
2022-10-13T03:51:22.500Z,10.40
2022-10-13T03:53:50.749Z,10.40
2022-10-13T03:56:21.015Z,10.40
2022-10-13T03:58:47.898Z,10.30
2022-10-13T04:01:14.998Z,10.30
2022-10-13T04:03:41.829Z,10.30
2022-10-13T04:06:09.785Z,10.20
2022-10-13T04:08:37.553Z,10.10
2022-10-13T04:11:07.364Z,10.10
2022-10-13T04:13:34.582Z,10.00
2022-10-13T04:16:09.170Z,10.00
2022-10-13T04:18:36.058Z,10.00
2022-10-13T04:21:06.940Z,10.10
2022-10-13T04:23:33.774Z,10.00
2022-10-13T04:26:00.521Z,10.00
2022-10-13T04:28:27.373Z,10.00
2022-10-13T04:30:54.148Z,10.00
2022-10-13T04:33:21.026Z,10.00
2022-10-13T04:35:47.789Z,10.00
2022-10-13T04:38:14.600Z,10.00
2022-10-13T04:40:41.418Z,9.90
2022-10-13T04:43:08.250Z,9.90
2022-10-13T04:45:35.004Z,9.90
2022-10-13T04:48:02.101Z,9.90
2022-10-13T04:50:28.979Z,9.90
2022-10-13T04:52:55.763Z,9.80
2022-10-13T04:55:22.513Z,9.80
2022-10-13T04:57:49.378Z,9.80
2022-10-13T05:00:16.810Z,9.80
2022-10-13T05:02:43.707Z,9.80
2022-10-13T05:05:10.912Z,9.80
2022-10-13T05:07:40.572Z,9.80
2022-10-13T05:10:07.601Z,9.80
2022-10-13T05:12:34.799Z,9.80
2022-10-13T05:15:01.715Z,9.80
2022-10-13T05:17:34.994Z,9.80
2022-10-13T05:20:02.739Z,9.70
2022-10-13T05:22:29.805Z,9.70
2022-10-13T05:24:56.568Z,9.60
2022-10-13T05:27:23.379Z,9.60
2022-10-13T05:29:50.357Z,9.60
2022-10-13T05:32:17.355Z,9.60
2022-10-13T05:34:44.306Z,9.60
2022-10-13T05:37:11.114Z,9.70
2022-10-13T05:39:37.959Z,9.70
2022-10-13T05:42:05.085Z,9.70
2022-10-13T05:44:31.930Z,9.70
2022-10-13T05:46:58.705Z,9.70
2022-10-13T05:49:25.634Z,9.70
2022-10-13T05:51:56.720Z,9.70
2022-10-13T05:54:30.879Z,9.70
2022-10-13T05:57:02.961Z,9.70
2022-10-13T05:59:35.182Z,9.70
2022-10-13T06:02:02.465Z,9.70
2022-10-13T06:04:35.896Z,9.70
2022-10-13T06:07:02.943Z,9.70
2022-10-13T06:09:37.860Z,9.70
2022-10-13T06:12:05.845Z,9.90
2022-10-13T06:14:33.863Z,9.90
2022-10-13T06:17:00.764Z,9.90
2022-10-13T06:19:27.514Z,9.90
2022-10-13T06:21:54.539Z,9.90
2022-10-13T06:24:21.365Z,10.00
2022-10-13T06:26:48.303Z,9.90
2022-10-13T06:29:15.504Z,9.90
2022-10-13T06:31:42.326Z,9.90
2022-10-13T06:34:09.142Z,10.00
2022-10-13T06:36:36.340Z,10.10
2022-10-13T06:39:03.735Z,10.00
2022-10-13T06:41:30.519Z,9.90
2022-10-13T06:43:57.337Z,9.90
2022-10-13T06:46:24.182Z,10.00
2022-10-13T06:48:51.611Z,10.10
2022-10-13T06:51:18.727Z,10.10
2022-10-13T06:53:45.759Z,10.00
2022-10-13T06:56:12.745Z,10.10
2022-10-13T06:58:39.513Z,10.10
2022-10-13T07:01:07.000Z,10.20
2022-10-13T07:03:34.165Z,10.10
2022-10-13T07:06:05.812Z,10.10
2022-10-13T07:08:33.034Z,10.30
2022-10-13T07:11:00.156Z,10.30
2022-10-13T07:13:27.413Z,10.30
2022-10-13T07:15:54.205Z,10.30
2022-10-13T07:18:21.026Z,10.30
2022-10-13T07:20:47.928Z,10.40
2022-10-13T07:23:14.779Z,10.40
2022-10-13T07:25:41.503Z,10.50
2022-10-13T07:28:08.315Z,10.50
2022-10-13T07:30:35.134Z,10.60
2022-10-13T07:33:01.978Z,10.60
2022-10-13T07:35:30.934Z,10.70
2022-10-13T07:37:58.147Z,10.80
2022-10-13T07:40:24.991Z,10.80
2022-10-13T07:42:51.768Z,11.00
2022-10-13T07:45:18.743Z,11.00
2022-10-13T07:47:45.595Z,10.90
2022-10-13T07:50:12.422Z,10.80
2022-10-13T07:52:39.616Z,10.90
2022-10-13T07:55:07.682Z,11.00
2022-10-13T07:57:34.970Z,11.10
2022-10-13T08:00:02.036Z,11.10
2022-10-13T08:02:30.161Z,11.10
2022-10-13T08:04:56.937Z,11.10
2022-10-13T08:07:23.840Z,11.30
2022-10-13T08:09:50.603Z,11.50
2022-10-13T08:12:17.651Z,11.60
2022-10-13T08:14:44.864Z,11.40
2022-10-13T08:17:11.687Z,11.50
2022-10-13T08:19:38.488Z,11.40
2022-10-13T08:22:09.178Z,11.40
2022-10-13T08:24:36.454Z,11.50
2022-10-13T08:27:03.605Z,11.70
2022-10-13T08:29:30.540Z,12.00
2022-10-13T08:31:57.527Z,12.10
2022-10-13T08:34:25.265Z,12.30
2022-10-13T08:36:54.411Z,12.40
2022-10-13T08:39:22.827Z,12.50
2022-10-13T08:41:50.219Z,12.40
2022-10-13T08:45:10.865Z,12.40
2022-10-13T08:47:39.547Z,12.50
2022-10-13T08:50:20.359Z,12.70
2022-10-13T08:52:57.939Z,12.80
2022-10-13T08:55:30.252Z,12.80
2022-10-13T08:57:57.271Z,13.00
2022-10-13T09:00:24.127Z,12.90
2022-10-13T09:02:51.413Z,12.90
2022-10-13T09:05:39.510Z,12.70
2022-10-13T09:08:16.261Z,12.80
2022-10-13T09:10:53.136Z,12.80
2022-10-13T09:13:20.622Z,12.80
2022-10-13T09:15:52.772Z,12.90
2022-10-13T09:18:27.192Z,13.00
2022-10-13T09:21:18.406Z,13.00
2022-10-13T09:23:45.726Z,13.10
2022-10-13T09:26:22.810Z,13.20
2022-10-13T09:28:50.558Z,13.30
2022-10-13T09:31:30.291Z,13.40
2022-10-13T09:34:02.193Z,13.50
2022-10-13T09:36:29.429Z,13.40
2022-10-13T09:39:14.911Z,13.60
2022-10-13T09:41:43.641Z,13.80
2022-10-13T09:44:28.894Z,13.90
2022-10-13T09:46:59.310Z,13.90
2022-10-13T09:49:45.131Z,13.90
2022-10-13T09:52:21.454Z,14.00
2022-10-13T09:54:51.363Z,14.10
2022-10-13T09:57:33.190Z,14.00
2022-10-13T10:00:13.357Z,14.10
2022-10-13T10:02:56.537Z,14.30
2022-10-13T10:05:39.438Z,14.40
2022-10-13T10:08:22.568Z,14.60
2022-10-13T10:10:56.553Z,14.60
2022-10-13T10:13:25.338Z,14.80
2022-10-13T10:15:57.758Z,15.00
2022-10-13T10:18:38.521Z,15.20
2022-10-13T10:21:28.300Z,15.40
2022-10-13T10:24:12.526Z,15.80
2022-10-13T10:26:39.314Z,15.90
2022-10-13T10:29:54.985Z,15.80
2022-10-13T10:32:43.125Z,16.00
2022-10-13T10:35:36.032Z,16.10
2022-10-13T10:38:21.454Z,16.40
2022-10-13T10:40:56.281Z,16.40
2022-10-13T10:43:51.960Z,16.60
2022-10-13T10:46:23.073Z,16.50
2022-10-13T10:48:54.948Z,16.40
2022-10-13T10:51:26.044Z,16.50
2022-10-13T10:54:04.764Z,16.70
2022-10-13T10:56:42.515Z,16.70
2022-10-13T10:59:37.441Z,17.20
2022-10-13T11:02:33.711Z,17.20
2022-10-13T11:05:05.285Z,17.10
2022-10-13T11:07:33.303Z,17.40
2022-10-13T11:10:00.069Z,17.40
2022-10-13T11:12:48.719Z,17.60
2022-10-13T11:15:33.683Z,17.20
2022-10-13T11:18:00.425Z,17.20
2022-10-13T11:20:36.481Z,17.20
2022-10-13T11:23:03.227Z,17.10
2022-10-13T11:25:36.018Z,17.20
2022-10-13T11:28:22.945Z,17.70
2022-10-13T11:30:55.337Z,17.40
2022-10-13T11:33:40.277Z,17.30
2022-10-13T11:36:32.000Z,17.10
2022-10-13T11:39:28.153Z,16.70
2022-10-13T11:42:27.115Z,16.70
2022-10-13T11:45:03.873Z,16.90
2022-10-13T11:47:48.792Z,17.20
2022-10-13T11:50:21.233Z,17.40
2022-10-13T11:53:13.743Z,17.40
2022-10-13T11:55:57.895Z,17.80
2022-10-13T11:58:27.602Z,17.70
2022-10-13T12:00:59.997Z,17.80
2022-10-13T12:03:44.801Z,17.70
2022-10-13T12:06:20.698Z,17.40
2022-10-13T12:08:51.964Z,17.60
2022-10-13T12:11:27.743Z,17.80
2022-10-13T12:13:55.450Z,17.90
2022-10-13T12:16:23.052Z,18.00
2022-10-13T12:18:49.934Z,18.00
2022-10-13T12:21:20.177Z,17.80
2022-10-13T12:23:49.339Z,17.70
2022-10-13T12:26:22.887Z,17.40
2022-10-13T12:29:03.998Z,17.40
2022-10-13T12:31:42.933Z,17.20
2022-10-13T12:34:27.673Z,17.70
2022-10-13T12:37:10.362Z,17.80
2022-10-13T12:39:38.412Z,17.90
2022-10-13T12:42:08.030Z,17.80
2022-10-13T12:44:34.987Z,18.00
2022-10-13T12:47:03.905Z,18.20
2022-10-13T12:49:33.446Z,18.30
2022-10-13T12:52:09.396Z,18.30
2022-10-13T12:54:38.852Z,18.30
2022-10-13T12:57:36.040Z,18.20
2022-10-13T13:00:19.834Z,18.20
2022-10-13T13:02:54.102Z,18.10
2022-10-13T13:05:37.629Z,18.20
2022-10-13T13:08:20.406Z,18.10
2022-10-13T13:11:00.290Z,17.90
2022-10-13T13:13:27.810Z,17.90
2022-10-13T13:16:12.398Z,17.80
2022-10-13T13:18:46.860Z,17.80
2022-10-13T13:21:16.193Z,17.70
2022-10-13T13:23:50.998Z,17.70
2022-10-13T13:26:22.801Z,17.50
2022-10-13T13:28:56.896Z,17.20
2022-10-13T13:31:26.239Z,17.10
2022-10-13T13:33:53.451Z,17.30
2022-10-13T13:36:25.925Z,17.20
2022-10-13T13:38:54.275Z,17.10
2022-10-13T13:41:24.614Z,17.00
2022-10-13T13:43:51.520Z,17.00
2022-10-13T13:46:21.538Z,16.90
2022-10-13T13:48:48.649Z,16.90
2022-10-13T13:51:16.843Z,16.90
2022-10-13T13:53:43.853Z,17.00
2022-10-13T13:56:15.666Z,16.80
2022-10-13T13:58:43.136Z,17.00
2022-10-13T14:01:11.176Z,16.90
2022-10-13T14:03:38.407Z,16.90
2022-10-13T14:06:05.459Z,17.00
2022-10-13T14:08:34.098Z,17.00
2022-10-13T14:11:01.365Z,16.90
2022-10-13T14:13:28.149Z,16.80
2022-10-13T14:15:59.320Z,16.90
2022-10-13T14:18:26.325Z,16.70
2022-10-13T14:20:53.112Z,16.60
2022-10-13T14:23:26.225Z,16.70
2022-10-13T14:25:53.043Z,16.80
2022-10-13T14:28:19.921Z,17.00
2022-10-13T14:30:46.787Z,16.70
2022-10-13T14:33:13.629Z,16.60
2022-10-13T14:35:40.452Z,16.70
2022-10-13T14:38:07.237Z,16.70
2022-10-13T14:40:34.109Z,16.70
2022-10-13T14:43:00.898Z,16.70
2022-10-13T14:45:27.787Z,16.70
2022-10-13T14:47:54.562Z,16.70
2022-10-13T14:50:21.325Z,16.70
2022-10-13T14:52:48.108Z,16.60
2022-10-13T14:55:14.947Z,16.60
2022-10-13T14:57:41.721Z,16.50
2022-10-13T15:00:10.581Z,16.50
2022-10-13T15:02:37.382Z,16.40
2022-10-13T15:05:04.612Z,16.30
2022-10-13T15:07:31.457Z,16.20
2022-10-13T15:10:06.328Z,16.10
2022-10-13T15:12:33.939Z,16.00
2022-10-13T15:15:00.757Z,16.00
2022-10-13T15:17:28.269Z,16.00
2022-10-13T15:19:55.311Z,16.00
2022-10-13T15:22:23.556Z,16.00
2022-10-13T15:24:50.609Z,16.00
2022-10-13T15:27:17.431Z,16.00
2022-10-13T15:29:44.412Z,15.90
2022-10-13T15:32:18.483Z,15.90
2022-10-13T15:34:45.563Z,15.80
2022-10-13T15:37:13.035Z,15.70
2022-10-13T15:39:39.881Z,15.80
2022-10-13T15:42:09.442Z,15.80
2022-10-13T15:45:08.839Z,15.70
2022-10-13T15:47:23.061Z,15.70
2022-10-13T15:49:50.000Z,15.60
2022-10-13T15:52:16.830Z,15.60
2022-10-13T15:54:43.671Z,15.60
2022-10-13T15:57:10.515Z,15.60
2022-10-13T15:59:37.513Z,15.60
2022-10-13T16:02:04.344Z,15.60
2022-10-13T16:04:36.362Z,15.50
2022-10-13T16:07:04.378Z,15.50
2022-10-13T16:09:31.995Z,15.40
2022-10-13T16:11:58.853Z,15.30
2022-10-13T16:14:25.729Z,15.30
2022-10-13T16:16:52.631Z,15.20
2022-10-13T16:19:19.495Z,15.20
2022-10-13T16:21:47.009Z,15.10
2022-10-13T16:24:13.838Z,15.10
2022-10-13T16:26:40.633Z,15.00
2022-10-13T16:29:07.455Z,14.90
2022-10-13T16:31:34.788Z,14.90
2022-10-13T16:34:01.579Z,14.80
2022-10-13T16:36:28.414Z,14.80
2022-10-13T16:38:56.447Z,14.70
2022-10-13T16:41:23.920Z,14.60
2022-10-13T16:43:50.862Z,14.50
2022-10-13T16:46:19.711Z,14.50
2022-10-13T16:48:49.793Z,14.40
2022-10-13T16:51:22.779Z,14.30
2022-10-13T16:53:54.661Z,14.20
2022-10-13T16:56:23.535Z,14.10
2022-10-13T16:58:53.117Z,14.00
2022-10-13T17:01:20.795Z,14.00
2022-10-13T17:03:50.090Z,14.00
2022-10-13T17:06:18.166Z,14.00
2022-10-13T17:08:45.060Z,14.00
2022-10-13T17:11:33.010Z,14.10
2022-10-13T17:14:00.998Z,14.10
2022-10-13T17:16:28.257Z,14.00
2022-10-13T17:18:55.529Z,14.00
2022-10-13T17:21:22.768Z,14.00
2022-10-13T17:23:50.278Z,13.90
2022-10-13T17:26:18.605Z,13.90
2022-10-13T17:28:45.861Z,13.80
2022-10-13T17:31:16.300Z,13.80
2022-10-13T17:33:44.071Z,13.70
2022-10-13T17:36:19.351Z,13.70
2022-10-13T17:38:46.934Z,13.70
2022-10-13T17:41:14.184Z,13.60
2022-10-13T17:43:41.840Z,13.50
2022-10-13T17:46:37.413Z,13.50
2022-10-13T17:49:06.299Z,13.50
2022-10-13T17:51:33.272Z,13.50
2022-10-13T17:54:01.144Z,13.50
2022-10-13T17:56:28.886Z,13.50
2022-10-13T17:58:56.767Z,13.50
2022-10-13T18:01:34.323Z,13.50
2022-10-13T18:04:04.380Z,13.50
2022-10-13T18:06:38.271Z,13.40
2022-10-13T18:09:16.810Z,13.50
2022-10-13T18:11:49.715Z,13.40
2022-10-13T18:14:18.531Z,13.40
2022-10-13T18:16:45.657Z,13.30
2022-10-13T18:19:12.835Z,13.20
2022-10-13T18:21:39.697Z,13.20
2022-10-13T18:24:07.002Z,13.10
2022-10-13T18:26:36.973Z,13.20
2022-10-13T18:29:05.931Z,13.20
2022-10-13T18:31:36.066Z,13.00
2022-10-13T18:34:06.715Z,13.00
2022-10-13T18:36:51.293Z,13.00
2022-10-13T18:39:23.182Z,13.00
2022-10-13T18:41:51.163Z,12.90
2022-10-13T18:44:18.956Z,12.80
2022-10-13T18:46:48.435Z,12.80
2022-10-13T18:49:18.151Z,12.70
2022-10-13T18:51:45.392Z,12.70
2022-10-13T18:54:12.276Z,12.70
2022-10-13T18:56:39.151Z,12.70
2022-10-13T18:59:07.299Z,12.70
2022-10-13T19:01:36.023Z,12.70
2022-10-13T19:04:03.191Z,12.70
2022-10-13T19:06:32.230Z,12.70
2022-10-13T19:09:05.497Z,12.50
2022-10-13T19:11:32.634Z,12.70
2022-10-13T19:14:00.342Z,12.60
2022-10-13T19:16:29.512Z,12.60
2022-10-13T19:18:56.733Z,12.40
2022-10-13T19:21:23.804Z,12.40
2022-10-13T19:23:50.929Z,12.30
2022-10-13T19:26:21.183Z,12.40
2022-10-13T19:28:48.179Z,12.30
2022-10-13T19:31:18.088Z,12.30
2022-10-13T19:33:47.180Z,12.30
2022-10-13T19:36:33.411Z,12.30
2022-10-13T19:39:01.485Z,12.20
2022-10-13T19:41:30.746Z,12.10
2022-10-13T19:43:58.585Z,12.10
2022-10-13T19:46:25.380Z,12.20
2022-10-13T19:48:52.191Z,12.10
2022-10-13T19:51:19.003Z,12.10
2022-10-13T19:53:45.889Z,12.10
2022-10-13T19:56:24.140Z,12.00
2022-10-13T19:58:54.533Z,12.00
2022-10-13T20:01:22.010Z,11.90
2022-10-13T20:03:49.351Z,11.90
2022-10-13T20:06:17.271Z,11.90
2022-10-13T20:08:47.875Z,11.80
2022-10-13T20:11:23.662Z,11.90
2022-10-13T20:13:51.135Z,11.90
2022-10-13T20:16:20.813Z,11.80
2022-10-13T20:18:52.288Z,11.80
2022-10-13T20:21:19.074Z,11.70
2022-10-13T20:23:45.865Z,11.70
2022-10-13T20:26:13.833Z,11.80
2022-10-13T20:28:43.191Z,11.80
2022-10-13T20:31:15.147Z,11.80
2022-10-13T20:33:42.366Z,11.70
2022-10-13T20:36:12.488Z,11.70
2022-10-13T20:38:39.402Z,11.60
2022-10-13T20:41:10.443Z,11.60
2022-10-13T20:43:37.236Z,11.60
2022-10-13T20:46:06.139Z,11.60
2022-10-13T20:48:57.817Z,11.50
2022-10-13T20:51:23.590Z,11.60
2022-10-13T20:53:50.954Z,11.60
2022-10-13T20:56:25.655Z,11.60
2022-10-13T20:58:53.243Z,11.60
2022-10-13T21:01:22.242Z,11.60
2022-10-13T21:03:56.106Z,11.60
2022-10-13T21:06:25.002Z,11.60
2022-10-13T21:08:52.766Z,11.60
2022-10-13T21:11:21.556Z,11.60
2022-10-13T21:13:49.747Z,11.70
2022-10-13T21:16:22.366Z,11.70
2022-10-13T21:18:51.098Z,11.70
2022-10-13T21:21:23.804Z,11.70
2022-10-13T21:23:52.211Z,11.70
2022-10-13T21:26:21.844Z,11.70
2022-10-13T21:28:49.927Z,11.70
2022-10-13T21:31:18.637Z,11.70
2022-10-13T21:33:45.772Z,11.80
2022-10-13T21:36:15.883Z,11.80
2022-10-13T21:38:44.268Z,11.80
2022-10-13T21:41:15.574Z,11.80
2022-10-13T21:43:42.569Z,11.80
2022-10-13T21:46:14.733Z,11.90
2022-10-13T21:48:42.163Z,11.90
2022-10-13T21:51:17.891Z,11.90
2022-10-13T21:53:52.313Z,11.90
2022-10-13T21:56:20.183Z,11.90
2022-10-13T21:58:48.868Z,11.90
2022-10-13T22:01:17.581Z,11.90
2022-10-13T22:03:46.958Z,11.90
2022-10-13T22:06:19.063Z,11.90
2022-10-13T22:08:47.781Z,12.00
2022-10-13T22:11:15.579Z,12.00
2022-10-13T22:13:42.677Z,12.00
2022-10-13T22:16:15.879Z,12.10
2022-10-13T22:18:43.311Z,12.10
2022-10-13T22:21:16.380Z,12.10
2022-10-13T22:23:43.920Z,12.10
2022-10-13T22:26:11.047Z,12.10
2022-10-13T22:28:38.297Z,12.10
2022-10-13T22:31:06.978Z,12.10
2022-10-13T22:33:35.584Z,12.10
2022-10-13T22:36:10.820Z,12.10
2022-10-13T22:38:37.823Z,12.10
2022-10-13T22:41:06.511Z,12.10
2022-10-13T22:43:33.753Z,12.10
2022-10-13T22:46:02.065Z,12.10
2022-10-13T22:48:28.903Z,12.10
2022-10-13T22:50:55.754Z,12.10
2022-10-13T22:53:22.549Z,12.10
2022-10-13T22:55:49.346Z,12.10
2022-10-13T22:58:16.092Z,12.10
2022-10-13T23:00:42.882Z,12.00
2022-10-13T23:03:13.791Z,12.00
2022-10-13T23:05:47.145Z,12.00
2022-10-13T23:08:14.061Z,12.00
2022-10-13T23:10:40.832Z,12.00
2022-10-13T23:13:07.601Z,12.00
2022-10-13T23:15:34.374Z,11.90
2022-10-13T23:18:01.152Z,11.90
2022-10-13T23:20:27.999Z,11.90
2022-10-13T23:22:54.766Z,11.90
2022-10-13T23:25:21.571Z,11.90
2022-10-13T23:27:48.497Z,11.80
2022-10-13T23:30:15.539Z,11.80
2022-10-13T23:32:42.340Z,11.80
2022-10-13T23:35:09.232Z,11.80
2022-10-13T23:37:36.006Z,11.80
2022-10-13T23:40:02.930Z,11.80
2022-10-13T23:42:29.690Z,11.70
2022-10-13T23:44:56.432Z,11.60
2022-10-13T23:47:23.696Z,11.50
2022-10-13T23:49:50.713Z,11.40
2022-10-13T23:52:19.474Z,11.40
2022-10-13T23:54:46.263Z,11.40
2022-10-13T23:57:13.231Z,11.40
2022-10-13T23:59:40.006Z,11.40
